메인 페이지
METAR-TAF:

METAR-TAF

공항 :

우고니 공항

아나디리, 러시아

위도: 64-47N, 경도: 177-34E, 고도: 62m

현재 날씨관측

예보는 29분 전, 07:00시(UTC)에 발표되었습니다.
남동16kt
온도 16°C
습도 63%
기압 1017 hPa
시정 10km 이상
1500m 미만 상공 구름 및 적란운 없음

METAR: UHMA 230700Z 13008MPS CAVOK 16/09 Q1017 R02/////// NOSIG RMK MID 13009MPS END R02/12007G10MPS QFE759/1012

시각: 19:29 (07:29 UTC)

예보

예보는 2 시간 39분 전, 04:50시(UTC)에 발표되었습니다.
예보 대상 시간: 23일 06시부터 24일 06시까지 (UTC)
동남동14kt
시정 10km 이상
고도 3000ft 상공 구름 보통
일시적
23일 06시부터 24일 06시까지 (UTC)
23kt, 순간 최대 풍속 33kt

TAF: UHMA 230450Z 2306/2406 12007MPS 9999 SCT030 TEMPO 2306/2406 10012G17MPS

4,000개 이상의 공항 관측 자료 및 예보 (METAR 및 TAF 보고).

지도상에서 검색 가능한 기상관측소가 노란 점과 빨간 점으로 표시되어 있습니다.

기상관측소 명을 보려면 표시 위로 마우스를 이동하세요.

날씨 관측과 예보를 보려면 클릭하세요.

지도 변경 : 확대하려면 엑스 표시가 있는 녹색 버튼, 축소하려면 빼기 표시가 있는 녹색 버튼, 다음 페이지의 지도를 보려면 녹색 화살표를 클릭하세요.


METAR-TAF: